Tribbett, Mississippi
Current Conditions -  °F | °C
As of 2:53 AM on Thursday 27 Nov 2014 (Local Time) from KTUP Reporting Station
Clear Clear  
Wind Chill: 35°   Ceiling: Unl
Heat Index: 40°   Visibility: 10mi
Dew Point: 29°   Wind: 7mph
Humidity: 65%   Direction: 330°NNW
Pressure: 30.26"   Gusts: NA
Location:  34.1966°N, 88.7098°W
Report Text: KTUP 270853Z AUTO 33006KT 10SM CLR 04/M02 A3026 RMK AO2 SLP248 T00441017 53025 $
Loading
Personal Weather Stations






























Interactive Weather Map New forecast layout! Learn more

10-Day Weather Forecast

Advertisements
Track Severe Weather on mobile